Time,TemperatureF,DewpointF,PressureIn,WindDirection,WindDirectionDegrees,WindSpeedMPH,WindSpeedGustMPH,Humidity,HourlyPrecipIn,Conditions,Clouds,dailyrainin,SoftwareType,DateUTC
2013-04-26 00:02:00,44.4,27.4,30.01,SSW,210,3.0,3.0,51,0.00,,,0.00,Wunderground v.1.15,2013-04-26 06:02:00,
2013-04-26 00:08:00,44.6,27.6,30.01,SSW,211,2.0,6.0,51,0.00,,,0.00,Wunderground v.1.15,2013-04-26 06:08:00,
2013-04-26 00:13:00,44.4,27.4,30.01,WSW,256,3.0,3.0,51,0.00,,,0.00,Wunderground v.1.15,2013-04-26 06:13:00,
2013-04-26 00:19:00,44.6,27.1,30.01,SW,219,2.0,4.0,50,0.00,,,0.00,Wunderground v.1.15,2013-04-26 06:19:00,
2013-04-26 00:25:00,45.0,27.0,30.01,WSW,240,2.0,4.0,49,0.00,,,0.00,Wunderground v.1.15,2013-04-26 06:25:00,
2013-04-26 00:30:00,45.2,26.7,30.01,SW,228,2.0,3.0,48,0.00,,,0.00,Wunderground v.1.15,2013-04-26 06:30:00,
2013-04-26 00:36:00,45.2,27.2,30.01,WSW,252,1.0,3.0,49,0.00,,,0.00,Wunderground v.1.15,2013-04-26 06:36:00,
2013-04-26 00:42:00,45.4,26.3,30.01,WSW,239,3.0,4.0,47,0.00,,,0.00,Wunderground v.1.15,2013-04-26 06:42:00,
2013-04-26 00:48:00,46.2,26.0,30.01,WNW,288,7.0,7.0,45,0.00,,,0.00,Wunderground v.1.15,2013-04-26 06:48:00,
2013-04-26 00:54:00,47.7,25.7,30.01,WNW,302,9.0,13.0,42,0.00,,,0.00,Wunderground v.1.15,2013-04-26 06:54:00,
2013-04-26 00:59:00,48.6,25.9,30.01,NW,304,11.0,13.0,41,0.00,,,0.00,Wunderground v.1.15,2013-04-26 06:59:00,
2013-04-26 01:05:00,48.6,25.9,30.01,WNW,300,11.0,12.0,41,0.00,,,0.00,Wunderground v.1.15,2013-04-26 07:05:00,
2013-04-26 01:11:00,48.4,25.8,30.01,NW,305,11.0,13.0,41,0.00,,,0.00,Wunderground v.1.15,2013-04-26 07:11:00,
2013-04-26 01:17:00,49.1,25.8,30.00,WNW,285,12.0,15.0,40,0.00,,,0.00,Wunderground v.1.15,2013-04-26 07:17:00,
2013-04-26 01:22:00,49.0,25.7,30.00,NW,304,16.0,16.0,40,0.00,,,0.00,Wunderground v.1.15,2013-04-26 07:22:00,
2013-04-26 01:28:00,48.9,25.6,30.00,WNW,295,10.0,16.0,40,0.00,,,0.00,Wunderground v.1.15,2013-04-26 07:28:00,
2013-04-26 01:34:00,48.9,26.2,30.00,WNW,294,13.0,14.0,41,0.00,,,0.00,Wunderground v.1.15,2013-04-26 07:34:00,
2013-04-26 01:40:00,48.9,26.2,30.00,WNW,303,10.0,12.0,41,0.00,,,0.00,Wunderground v.1.15,2013-04-26 07:40:00,
2013-04-26 01:45:00,48.7,25.4,30.00,NW,314,12.0,13.0,40,0.00,,,0.00,Wunderground v.1.15,2013-04-26 07:45:00,
2013-04-26 01:51:00,48.5,25.8,30.00,WNW,298,10.0,13.0,41,0.00,,,0.00,Wunderground v.1.15,2013-04-26 07:51:00,
2013-04-26 01:57:00,48.4,25.8,30.00,NW,317,11.0,15.0,41,0.00,,,0.00,Wunderground v.1.15,2013-04-26 07:57:00,
2013-04-26 02:02:00,48.4,25.2,30.00,WNW,303,14.0,14.0,40,0.00,,,0.00,Wunderground v.1.15,2013-04-26 08:02:00,
2013-04-26 02:07:00,48.5,25.2,29.99,NW,312,11.0,16.0,40,0.00,,,0.00,Wunderground v.1.15,2013-04-26 08:07:00,
2013-04-26 02:12:00,48.5,25.2,29.99,NW,311,10.0,15.0,40,0.00,,,0.00,Wunderground v.1.15,2013-04-26 08:12:00,
2013-04-26 02:17:00,48.5,25.2,29.99,NW,314,15.0,17.0,40,0.00,,,0.00,Wunderground v.1.15,2013-04-26 08:17:00,
2013-04-26 02:22:00,48.4,25.2,29.99,WNW,296,10.0,14.0,40,0.00,,,0.00,Wunderground v.1.15,2013-04-26 08:22:00,
2013-04-26 02:27:00,48.3,25.1,30.00,NW,318,2.0,14.0,40,0.00,,,0.00,Wunderground v.1.15,2013-04-26 08:27:00,
2013-04-26 02:32:00,47.6,25.0,30.00,NW,317,3.0,9.0,41,0.00,,,0.00,Wunderground v.1.15,2013-04-26 08:32:00,
2013-04-26 02:37:00,47.6,24.4,30.00,WNW,301,11.0,11.0,40,0.00,,,0.00,Wunderground v.1.15,2013-04-26 08:37:00,
2013-04-26 02:42:00,47.9,24.1,30.00,WNW,296,13.0,17.0,39,0.00,,,0.00,Wunderground v.1.15,2013-04-26 08:42:00,
2013-04-26 02:47:00,48.3,24.5,30.00,NW,321,9.0,17.0,39,0.00,,,0.00,Wunderground v.1.15,2013-04-26 08:47:00,
2013-04-26 02:52:00,48.3,24.5,30.00,NW,310,13.0,16.0,39,0.00,,,0.00,Wunderground v.1.15,2013-04-26 08:52:00,
2013-04-26 02:57:00,48.4,23.9,30.00,WNW,297,12.0,17.0,38,0.00,,,0.00,Wunderground v.1.15,2013-04-26 08:57:00,
2013-04-26 03:02:00,48.3,23.8,30.00,WNW,296,11.0,15.0,38,0.00,,,0.00,Wunderground v.1.15,2013-04-26 09:02:00,
2013-04-26 03:07:00,48.3,23.8,30.00,NW,317,12.0,16.0,38,0.00,,,0.00,Wunderground v.1.15,2013-04-26 09:07:00,
2013-04-26 03:12:00,48.4,23.9,30.00,WNW,290,10.0,18.0,38,0.00,,,0.00,Wunderground v.1.15,2013-04-26 09:12:00,
2013-04-26 03:17:00,47.6,25.0,30.01,East,84,11.0,18.0,41,0.00,,,0.00,Wunderground v.1.15,2013-04-26 09:17:00,
2013-04-26 03:22:00,46.7,24.2,30.01,NNW,339,1.0,7.0,41,0.00,,,0.00,Wunderground v.1.15,2013-04-26 09:22:00,
2013-04-26 03:27:00,46.1,24.8,30.02,NNW,343,1.0,7.0,43,0.00,,,0.00,Wunderground v.1.15,2013-04-26 09:27:00,
2013-04-26 03:32:00,45.1,24.5,30.02,WNW,294,3.0,3.0,44,0.00,,,0.00,Wunderground v.1.15,2013-04-26 09:32:00,
2013-04-26 03:37:00,44.0,25.0,30.02,West,273,3.0,4.0,47,0.00,,,0.00,Wunderground v.1.15,2013-04-26 09:37:00,
2013-04-26 03:42:00,43.1,24.7,30.02,WSW,240,4.0,5.0,48,0.00,,,0.00,Wunderground v.1.15,2013-04-26 09:42:00,
2013-04-26 03:47:00,42.5,25.1,30.02,WSW,252,5.0,5.0,50,0.00,,,0.00,Wunderground v.1.15,2013-04-26 09:47:00,
2013-04-26 03:52:00,41.7,24.9,30.02,WSW,248,5.0,8.0,51,0.00,,,0.00,Wunderground v.1.15,2013-04-26 09:52:00,
2013-04-26 03:57:00,41.3,25.0,30.03,WSW,253,8.0,9.0,52,0.00,,,0.00,Wunderground v.1.15,2013-04-26 09:57:00,
2013-04-26 04:02:00,42.0,25.2,30.03,South,186,1.0,7.0,51,0.00,,,0.00,Wunderground v.1.15,2013-04-26 10:02:00,
2013-04-26 04:07:00,42.7,24.4,30.03,West,262,4.0,7.0,48,0.00,,,0.00,Wunderground v.1.15,2013-04-26 10:07:00,
2013-04-26 04:12:00,44.7,23.5,30.03,WNW,300,8.0,8.0,43,0.00,,,0.00,Wunderground v.1.15,2013-04-26 10:12:00,
2013-04-26 04:17:00,46.2,23.8,30.03,NNE,19,5.0,11.0,41,0.00,,,0.00,Wunderground v.1.15,2013-04-26 10:17:00,
2013-04-26 04:22:00,46.2,23.8,30.04,NW,323,7.0,7.0,41,0.00,,,0.00,Wunderground v.1.15,2013-04-26 10:22:00,
2013-04-26 04:27:00,46.8,23.1,30.04,WNW,291,8.0,9.0,39,0.00,,,0.00,Wunderground v.1.15,2013-04-26 10:27:00,
2013-04-26 04:32:00,47.2,22.9,30.04,NW,307,7.0,8.0,38,0.00,,,0.00,Wunderground v.1.15,2013-04-26 10:32:00,
2013-04-26 04:37:00,47.4,23.0,30.04,WNW,291,7.0,11.0,38,0.00,,,0.00,Wunderground v.1.15,2013-04-26 10:37:00,
2013-04-26 04:42:00,47.5,23.1,30.05,WNW,296,5.0,10.0,38,0.00,,,0.00,Wunderground v.1.15,2013-04-26 10:42:00,
2013-04-26 04:47:00,47.4,22.4,30.04,NW,314,7.0,11.0,37,0.00,,,0.00,Wunderground v.1.15,2013-04-26 10:47:00,
2013-04-26 04:52:00,47.4,22.4,30.05,WNW,288,8.0,11.0,37,0.00,,,0.00,Wunderground v.1.15,2013-04-26 10:52:00,
2013-04-26 04:57:00,47.4,22.4,30.05,WNW,296,8.0,14.0,37,0.00,,,0.00,Wunderground v.1.15,2013-04-26 10:57:00,
2013-04-26 05:02:00,47.0,22.7,30.05,WNW,294,9.0,12.0,38,0.00,,,0.00,Wunderground v.1.15,2013-04-26 11:02:00,
2013-04-26 05:07:00,46.9,22.6,30.05,NW,312,11.0,16.0,38,0.00,,,0.00,Wunderground v.1.15,2013-04-26 11:07:00,
2013-04-26 05:12:00,46.9,22.6,30.06,WNW,300,8.0,13.0,38,0.00,,,0.00,Wunderground v.1.15,2013-04-26 11:12:00,
2013-04-26 05:17:00,46.9,22.6,30.05,NW,307,8.0,15.0,38,0.00,,,0.00,Wunderground v.1.15,2013-04-26 11:17:00,
2013-04-26 05:22:00,46.8,22.5,30.06,WNW,300,12.0,16.0,38,0.00,,,0.00,Wunderground v.1.15,2013-04-26 11:22:00,
2013-04-26 05:27:00,46.8,21.9,30.06,WNW,296,9.0,16.0,37,0.00,,,0.00,Wunderground v.1.15,2013-04-26 11:27:00,
2013-04-26 05:32:00,46.5,22.2,30.06,NW,316,14.0,17.0,38,0.00,,,0.00,Wunderground v.1.15,2013-04-26 11:32:00,
2013-04-26 05:37:00,46.6,22.3,30.06,WNW,296,11.0,17.0,38,0.00,,,0.00,Wunderground v.1.15,2013-04-26 11:37:00,
2013-04-26 05:42:00,46.5,22.2,30.06,NW,305,13.0,17.0,38,0.00,,,0.00,Wunderground v.1.15,2013-04-26 11:42:00,
2013-04-26 05:47:00,46.5,21.6,30.06,NW,307,11.0,17.0,37,0.00,,,0.00,Wunderground v.1.15,2013-04-26 11:47:00,
2013-04-26 05:52:00,46.2,22.0,30.06,NW,321,11.0,17.0,38,0.00,,,0.00,Wunderground v.1.15,2013-04-26 11:52:00,
2013-04-26 05:57:00,45.8,22.2,30.07,NW,321,12.0,17.0,39,0.00,,,0.00,Wunderground v.1.15,2013-04-26 11:57:00,
2013-04-26 06:02:00,45.3,22.4,30.07,NW,325,13.0,15.0,40,0.00,,,0.00,Wunderground v.1.15,2013-04-26 12:02:00,
2013-04-26 06:07:00,45.1,22.2,30.07,WNW,296,12.0,16.0,40,0.00,,,0.00,Wunderground v.1.15,2013-04-26 12:07:00,
2013-04-26 06:12:00,45.3,22.4,30.07,WNW,300,13.0,18.0,40,0.00,,,0.00,Wunderground v.1.15,2013-04-26 12:12:00,
2013-04-26 06:17:00,44.8,21.9,30.07,WNW,300,12.0,19.0,40,0.00,,,0.00,Wunderground v.1.15,2013-04-26 12:17:00,
2013-04-26 06:22:00,45.0,22.1,30.07,WNW,289,12.0,17.0,40,0.00,,,0.00,Wunderground v.1.15,2013-04-26 12:22:00,
2013-04-26 06:27:00,45.3,21.8,30.07,NW,309,12.0,17.0,39,0.00,,,0.00,Wunderground v.1.15,2013-04-26 12:27:00,
2013-04-26 06:32:00,45.6,22.0,30.08,NW,307,7.0,17.0,39,0.00,,,0.00,Wunderground v.1.15,2013-04-26 12:32:00,
2013-04-26 06:37:00,45.8,21.6,30.08,WNW,300,14.0,17.0,38,0.00,,,0.00,Wunderground v.1.15,2013-04-26 12:37:00,
2013-04-26 06:42:00,45.8,21.6,30.08,NW,314,12.0,16.0,38,0.00,,,0.00,Wunderground v.1.15,2013-04-26 12:42:00,
2013-04-26 06:47:00,45.9,22.3,30.08,WNW,289,11.0,18.0,39,0.00,,,0.00,Wunderground v.1.15,2013-04-26 12:47:00,
2013-04-26 06:52:00,46.0,21.8,30.08,WNW,297,11.0,15.0,38,0.00,,,0.00,Wunderground v.1.15,2013-04-26 12:52:00,
2013-04-26 06:57:00,46.2,22.0,30.08,NW,314,12.0,16.0,38,0.00,,,0.00,Wunderground v.1.15,2013-04-26 12:57:00,
2013-04-26 07:02:00,46.5,21.6,30.08,NW,317,11.0,12.0,37,0.00,,,0.00,Wunderground v.1.15,2013-04-26 13:02:00,
2013-04-26 07:07:00,46.9,22.0,30.09,NW,305,9.0,14.0,37,0.00,,,0.00,Wunderground v.1.15,2013-04-26 13:07:00,
2013-04-26 07:12:00,47.3,21.7,30.09,NNW,333,7.0,12.0,36,0.00,,,0.00,Wunderground v.1.15,2013-04-26 13:12:00,
2013-04-26 07:17:00,47.3,21.7,30.09,NW,318,9.0,16.0,36,0.00,,,0.00,Wunderground v.1.15,2013-04-26 13:17:00,
2013-04-26 07:22:00,47.6,21.9,30.09,NW,323,12.0,14.0,36,0.00,,,0.00,Wunderground v.1.15,2013-04-26 13:22:00,
2013-04-26 07:27:00,47.9,21.5,30.10,WNW,293,13.0,16.0,35,0.00,,,0.00,Wunderground v.1.15,2013-04-26 13:27:00,
2013-04-26 07:32:00,48.3,21.9,30.10,WNW,284,9.0,16.0,35,0.00,,,0.00,Wunderground v.1.15,2013-04-26 13:32:00,
2013-04-26 07:37:00,48.7,20.8,30.10,NW,307,8.0,16.0,33,0.00,,,0.00,Wunderground v.1.15,2013-04-26 13:37:00,
2013-04-26 07:42:00,49.5,20.8,30.10,NW,315,10.0,13.0,32,0.00,,,0.00,Wunderground v.1.15,2013-04-26 13:42:00,
2013-04-26 07:47:00,50.0,21.3,30.10,NW,321,7.0,14.0,32,0.00,,,0.00,Wunderground v.1.15,2013-04-26 13:47:00,
2013-04-26 07:52:00,50.5,20.9,30.10,NW,321,8.0,12.0,31,0.00,,,0.00,Wunderground v.1.15,2013-04-26 13:52:00,
2013-04-26 07:57:00,50.8,20.4,30.10,NNW,328,5.0,14.0,30,0.00,,,0.00,Wunderground v.1.15,2013-04-26 13:57:00,
2013-04-26 08:03:00,51.1,21.5,30.10,NNW,338,10.0,12.0,31,0.00,,,0.00,Wunderground v.1.15,2013-04-26 14:03:00,
2013-04-26 08:08:00,51.8,19.7,30.10,NW,317,10.0,12.0,28,0.00,,,0.00,Wunderground v.1.15,2013-04-26 14:08:00,
2013-04-26 08:13:00,52.2,21.7,30.10,NW,326,6.0,12.0,30,0.00,,,0.00,Wunderground v.1.15,2013-04-26 14:13:00,
2013-04-26 08:18:00,52.5,20.3,30.10,NNW,345,8.0,12.0,28,0.00,,,0.00,Wunderground v.1.15,2013-04-26 14:18:00,
2013-04-26 08:23:00,53.1,20.8,30.11,WNW,293,5.0,8.0,28,0.00,,,0.00,Wunderground v.1.15,2013-04-26 14:23:00,
2013-04-26 08:28:00,53.7,21.3,30.10,NNW,336,6.0,8.0,28,0.00,,,0.00,Wunderground v.1.15,2013-04-26 14:28:00,
2013-04-26 08:33:00,54.3,19.2,30.11,NW,322,4.0,8.0,25,0.00,,,0.00,Wunderground v.1.15,2013-04-26 14:33:00,
2013-04-26 08:38:00,54.9,20.6,30.10,North,8,1.0,8.0,26,0.00,,,0.00,Wunderground v.1.15,2013-04-26 14:38:00,
2013-04-26 08:43:00,55.9,20.5,30.11,NNE,24,2.0,5.0,25,0.00,,,0.00,Wunderground v.1.15,2013-04-26 14:43:00,
2013-04-26 08:48:00,56.3,18.9,30.11,NNE,18,1.0,5.0,23,0.00,,,0.00,Wunderground v.1.15,2013-04-26 14:48:00,
2013-04-26 08:53:00,57.0,20.5,30.11,ENE,60,5.0,7.0,24,0.00,,,0.00,Wunderground v.1.15,2013-04-26 14:53:00,
2013-04-26 08:58:00,57.2,19.7,30.11,NNE,30,4.0,7.0,23,0.00,,,0.00,Wunderground v.1.15,2013-04-26 14:58:00,
2013-04-26 09:03:00,57.4,20.9,30.11,ENE,70,3.0,7.0,24,0.00,,,0.00,Wunderground v.1.15,2013-04-26 15:03:00,
2013-04-26 09:08:00,57.5,21.9,30.11,ENE,71,4.0,8.0,25,0.00,,,0.00,Wunderground v.1.15,2013-04-26 15:08:00,
2013-04-26 09:13:00,57.7,16.8,30.11,NE,34,6.0,9.0,20,0.00,,,0.00,Wunderground v.1.15,2013-04-26 15:13:00,
2013-04-26 09:18:00,57.5,17.8,30.11,ENE,60,5.0,9.0,21,0.00,,,0.00,Wunderground v.1.15,2013-04-26 15:18:00,
2013-04-26 09:23:00,57.6,19.0,30.11,NNE,27,4.0,8.0,22,0.00,,,0.00,Wunderground v.1.15,2013-04-26 15:23:00,
2013-04-26 09:28:00,57.9,18.1,30.11,NNE,16,3.0,8.0,21,0.00,,,0.00,Wunderground v.1.15,2013-04-26 15:28:00,
2013-04-26 09:33:00,58.0,18.2,30.11,North,357,5.0,7.0,21,0.00,,,0.00,Wunderground v.1.15,2013-04-26 15:33:00,
2013-04-26 09:38:00,58.1,18.3,30.11,NE,36,5.0,9.0,21,0.00,,,0.00,Wunderground v.1.15,2013-04-26 15:38:00,
2013-04-26 09:43:00,58.1,19.4,30.11,ENE,77,2.0,6.0,22,0.00,,,0.00,Wunderground v.1.15,2013-04-26 15:43:00,
2013-04-26 09:48:00,58.6,19.8,30.12,East,94,10.0,12.0,22,0.00,,,0.00,Wunderground v.1.15,2013-04-26 15:48:00,
2013-04-26 09:53:00,58.5,19.7,30.12,ENE,74,4.0,11.0,22,0.00,,,0.00,Wunderground v.1.15,2013-04-26 15:53:00,
2013-04-26 09:58:00,58.9,20.1,30.12,SSE,147,3.0,11.0,22,0.00,,,0.00,Wunderground v.1.15,2013-04-26 15:58:00,
2013-04-26 10:03:00,59.0,16.7,30.12,East,86,6.0,12.0,19,0.00,,,0.00,Wunderground v.1.15,2013-04-26 16:03:00,
2013-04-26 10:07:00,59.0,15.5,30.12,East,79,8.0,13.0,18,0.00,,,0.00,Wunderground v.1.15,2013-04-26 16:07:00,
2013-04-26 10:12:00,59.0,19.1,30.12,East,101,8.0,11.0,21,0.00,,,0.00,Wunderground v.1.15,2013-04-26 16:12:00,
2013-04-26 10:17:00,59.2,14.3,30.12,East,83,6.0,12.0,17,0.00,,,0.00,Wunderground v.1.15,2013-04-26 16:17:00,
2013-04-26 10:22:00,59.2,15.7,30.12,East,85,9.0,9.0,18,0.00,,,0.00,Wunderground v.1.15,2013-04-26 16:22:00,
2013-04-26 10:27:00,59.3,13.0,30.13,East,98,5.0,11.0,16,0.00,,,0.00,Wunderground v.1.15,2013-04-26 16:27:00,
2013-04-26 10:32:00,59.3,15.7,30.12,ESE,117,6.0,9.0,18,0.00,,,0.00,Wunderground v.1.15,2013-04-26 16:32:00,
2013-04-26 10:37:00,59.8,17.4,30.13,SE,127,6.0,9.0,19,0.00,,,0.00,Wunderground v.1.15,2013-04-26 16:37:00,
2013-04-26 10:42:00,60.1,15.1,30.13,ESE,121,6.0,8.0,17,0.00,,,0.00,Wunderground v.1.15,2013-04-26 16:42:00,
2013-04-26 10:47:00,60.3,13.9,30.13,East,98,3.0,8.0,16,0.00,,,0.00,Wunderground v.1.15,2013-04-26 16:47:00,
2013-04-26 10:52:00,59.8,17.4,30.13,ENE,71,3.0,9.0,19,0.00,,,0.00,Wunderground v.1.15,2013-04-26 16:52:00,
2013-04-26 10:57:00,60.0,17.6,30.13,NE,51,1.0,9.0,19,0.00,,,0.00,Wunderground v.1.15,2013-04-26 16:57:00,
2013-04-26 11:02:00,60.4,16.6,30.13,ESE,117,4.0,6.0,18,0.00,,,0.00,Wunderground v.1.15,2013-04-26 17:02:00,
2013-04-26 11:07:00,60.8,17.0,30.13,East,83,4.0,8.0,18,0.00,,,0.00,Wunderground v.1.15,2013-04-26 17:07:00,
2013-04-26 11:12:00,60.5,14.0,30.13,ESE,120,2.0,10.0,16,0.00,,,0.00,Wunderground v.1.15,2013-04-26 17:12:00,
2013-04-26 11:17:00,60.4,13.9,30.13,NNE,22,1.0,10.0,16,0.00,,,0.00,Wunderground v.1.15,2013-04-26 17:17:00,
2013-04-26 11:22:00,60.7,14.2,30.13,ESE,103,2.0,5.0,16,0.00,,,0.00,Wunderground v.1.15,2013-04-26 17:22:00,
2013-04-26 11:27:00,60.9,15.7,30.13,ESE,103,4.0,10.0,17,0.00,,,0.00,Wunderground v.1.15,2013-04-26 17:27:00,
2013-04-26 11:32:00,60.7,15.6,30.13,West,272,2.0,6.0,17,0.00,,,0.00,Wunderground v.1.15,2013-04-26 17:32:00,
2013-04-26 11:37:00,60.8,15.6,30.13,NNE,15,3.0,9.0,17,0.00,,,0.00,Wunderground v.1.15,2013-04-26 17:37:00,
2013-04-26 11:43:00,61.1,14.5,30.13,ESE,109,4.0,6.0,16,0.00,,,0.00,Wunderground v.1.15,2013-04-26 17:43:00,
2013-04-26 11:48:00,61.5,14.8,30.13,SSW,200,3.0,10.0,16,0.00,,,0.00,Wunderground v.1.15,2013-04-26 17:48:00,
2013-04-26 11:53:00,61.7,19.0,30.13,NNE,33,3.0,4.0,19,0.00,,,0.00,Wunderground v.1.15,2013-04-26 17:53:00,
2013-04-26 11:58:00,61.7,15.0,30.13,ENE,71,9.0,9.0,16,0.00,,,0.00,Wunderground v.1.15,2013-04-26 17:58:00,
2013-04-26 12:03:00,61.9,17.9,30.13,East,88,4.0,10.0,18,0.00,,,0.00,Wunderground v.1.15,2013-04-26 18:03:00,
2013-04-26 12:08:00,62.2,19.4,30.13,SE,134,5.0,10.0,19,0.00,,,0.00,Wunderground v.1.15,2013-04-26 18:08:00,
2013-04-26 12:13:00,62.1,16.7,30.13,East,79,7.0,10.0,17,0.00,,,0.00,Wunderground v.1.15,2013-04-26 18:13:00,
2013-04-26 12:18:00,61.9,15.1,30.12,East,98,6.0,10.0,16,0.00,,,0.00,Wunderground v.1.15,2013-04-26 18:18:00,
2013-04-26 12:23:00,61.7,16.4,30.12,East,84,3.0,5.0,17,0.00,,,0.00,Wunderground v.1.15,2013-04-26 18:23:00,
2013-04-26 12:28:00,61.6,13.4,30.12,North,8,5.0,9.0,15,0.00,,,0.00,Wunderground v.1.15,2013-04-26 18:28:00,
2013-04-26 12:33:00,62.4,15.6,30.12,East,85,1.0,7.0,16,0.00,,,0.00,Wunderground v.1.15,2013-04-26 18:33:00,
2013-04-26 12:38:00,62.4,18.3,30.11,ESE,109,11.0,12.0,18,0.00,,,0.00,Wunderground v.1.15,2013-04-26 18:38:00,
2013-04-26 12:43:00,62.6,17.1,30.11,SSE,158,3.0,8.0,17,0.00,,,0.00,Wunderground v.1.15,2013-04-26 18:43:00,
2013-04-26 12:48:00,62.6,14.2,30.11,ENE,72,3.0,8.0,15,0.00,,,0.00,Wunderground v.1.15,2013-04-26 18:48:00,
2013-04-26 12:52:00,62.3,14.0,30.11,SW,222,2.0,6.0,15,0.00,,,0.00,Wunderground v.1.15,2013-04-26 18:52:00,
2013-04-26 12:57:00,62.5,14.2,30.11,East,95,5.0,8.0,15,0.00,,,0.00,Wunderground v.1.15,2013-04-26 18:57:00,
2013-04-26 13:02:00,62.5,15.6,30.11,NW,311,3.0,8.0,16,0.00,,,0.00,Wunderground v.1.15,2013-04-26 19:02:00,
2013-04-26 13:07:00,62.5,14.2,30.11,NNE,19,7.0,9.0,15,0.00,,,0.00,Wunderground v.1.15,2013-04-26 19:07:00,
2013-04-26 13:12:00,62.5,12.6,30.11,North,6,2.0,7.0,14,0.00,,,0.00,Wunderground v.1.15,2013-04-26 19:12:00,
2013-04-26 13:17:00,62.5,18.4,30.11,ESE,117,3.0,9.0,18,0.00,,,0.00,Wunderground v.1.15,2013-04-26 19:17:00,
2013-04-26 13:22:00,62.7,14.3,30.10,SSW,208,6.0,8.0,15,0.00,,,0.00,Wunderground v.1.15,2013-04-26 19:22:00,
2013-04-26 13:27:00,63.2,17.6,30.11,East,84,6.0,11.0,17,0.00,,,0.00,Wunderground v.1.15,2013-04-26 19:27:00,
2013-04-26 13:32:00,62.9,16.0,30.11,NE,50,3.0,6.0,16,0.00,,,0.00,Wunderground v.1.15,2013-04-26 19:32:00,
2013-04-26 13:37:00,63.0,14.6,30.10,South,184,3.0,6.0,15,0.00,,,0.00,Wunderground v.1.15,2013-04-26 19:37:00,
2013-04-26 13:42:00,63.5,16.4,30.10,SSW,198,3.0,7.0,16,0.00,,,0.00,Wunderground v.1.15,2013-04-26 19:42:00,
2013-04-26 13:47:00,64.1,15.4,30.10,SW,231,8.0,8.0,15,0.00,,,0.00,Wunderground v.1.15,2013-04-26 19:47:00,
2013-04-26 13:52:00,63.7,15.1,30.10,NW,317,0.0,4.0,15,0.00,,,0.00,Wunderground v.1.15,2013-04-26 19:52:00,
2013-04-26 13:57:00,63.9,18.2,30.10,NNW,329,3.0,6.0,17,0.00,,,0.00,Wunderground v.1.15,2013-04-26 19:57:00,
2013-04-26 14:02:00,63.9,19.5,30.10,East,85,7.0,8.0,18,0.00,,,0.00,Wunderground v.1.15,2013-04-26 20:02:00,
2013-04-26 14:08:00,64.2,19.8,30.10,East,94,7.0,8.0,18,0.00,,,0.00,Wunderground v.1.15,2013-04-26 20:08:00,
2013-04-26 14:13:00,64.4,18.6,30.10,WSW,246,2.0,4.0,17,0.00,,,0.00,Wunderground v.1.15,2013-04-26 20:13:00,
2013-04-26 14:18:00,64.7,21.4,30.10,SE,136,2.0,6.0,19,0.00,,,0.00,Wunderground v.1.15,2013-04-26 20:18:00,
2013-04-26 14:23:00,64.6,18.7,30.10,NE,56,2.0,15.0,17,0.00,,,0.00,Wunderground v.1.15,2013-04-26 20:23:00,
2013-04-26 14:28:00,63.8,18.1,30.10,SE,139,3.0,15.0,17,0.00,,,0.00,Wunderground v.1.15,2013-04-26 20:28:00,
2013-04-26 14:33:00,64.0,19.6,30.10,SE,127,9.0,10.0,18,0.00,,,0.00,Wunderground v.1.15,2013-04-26 20:33:00,
2013-04-26 14:38:00,63.9,19.5,30.10,ESE,108,3.0,10.0,18,0.00,,,0.00,Wunderground v.1.15,2013-04-26 20:38:00,
2013-04-26 14:43:00,63.7,18.0,30.10,ENE,78,5.0,7.0,17,0.00,,,0.00,Wunderground v.1.15,2013-04-26 20:43:00,
2013-04-26 14:48:00,63.7,18.0,30.09,WNW,287,4.0,8.0,17,0.00,,,0.00,Wunderground v.1.15,2013-04-26 20:48:00,
2013-04-26 14:53:00,64.2,19.8,30.09,East,82,8.0,14.0,18,0.00,,,0.00,Wunderground v.1.15,2013-04-26 20:53:00,
2013-04-26 14:58:00,64.5,21.3,30.09,ENE,75,6.0,14.0,19,0.00,,,0.00,Wunderground v.1.15,2013-04-26 20:58:00,
2013-04-26 15:03:00,64.2,17.0,30.09,NE,39,12.0,12.0,16,0.00,,,0.00,Wunderground v.1.15,2013-04-26 21:03:00,
2013-04-26 15:08:00,63.6,19.3,30.09,East,82,6.0,12.0,18,0.00,,,0.00,Wunderground v.1.15,2013-04-26 21:08:00,
2013-04-26 15:13:00,64.2,21.0,30.09,ESE,122,4.0,9.0,19,0.00,,,0.00,Wunderground v.1.15,2013-04-26 21:13:00,
2013-04-26 15:18:00,64.4,18.6,30.09,SE,127,0.0,9.0,17,0.00,,,0.00,Wunderground v.1.15,2013-04-26 21:18:00,
2013-04-26 15:23:00,64.9,19.0,30.09,East,79,4.0,4.0,17,0.00,,,0.00,Wunderground v.1.15,2013-04-26 21:23:00,
2013-04-26 15:28:00,65.0,19.1,30.09,South,169,3.0,7.0,17,0.00,,,0.00,Wunderground v.1.15,2013-04-26 21:28:00,
2013-04-26 15:33:00,65.3,16.4,30.09,WSW,246,2.0,5.0,15,0.00,,,0.00,Wunderground v.1.15,2013-04-26 21:33:00,
2013-04-26 15:38:00,64.9,16.1,30.09,West,267,2.0,8.0,15,0.00,,,0.00,Wunderground v.1.15,2013-04-26 21:38:00,
2013-04-26 15:43:00,64.8,17.5,30.09,SSW,207,3.0,6.0,16,0.00,,,0.00,Wunderground v.1.15,2013-04-26 21:43:00,
2013-04-26 15:48:00,65.0,17.7,30.08,South,169,5.0,6.0,16,0.00,,,0.00,Wunderground v.1.15,2013-04-26 21:48:00,
2013-04-26 15:53:00,65.4,18.0,30.08,ESE,105,2.0,6.0,16,0.00,,,0.00,Wunderground v.1.15,2013-04-26 21:53:00,
2013-04-26 15:58:00,65.9,19.8,30.08,ENE,71,6.0,10.0,17,0.00,,,0.00,Wunderground v.1.15,2013-04-26 21:58:00,
2013-04-26 16:03:00,65.5,20.8,30.08,NE,38,4.0,9.0,18,0.00,,,0.00,Wunderground v.1.15,2013-04-26 22:03:00,
2013-04-26 16:08:00,65.3,20.7,30.08,NE,37,6.0,9.0,18,0.00,,,0.00,Wunderground v.1.15,2013-04-26 22:08:00,
2013-04-26 16:13:00,65.2,19.2,30.08,NE,51,5.0,8.0,17,0.00,,,0.00,Wunderground v.1.15,2013-04-26 22:13:00,
2013-04-26 16:18:00,65.1,19.2,30.08,NNE,19,6.0,8.0,17,0.00,,,0.00,Wunderground v.1.15,2013-04-26 22:18:00,
2013-04-26 16:23:00,65.0,17.7,30.08,NE,34,4.0,9.0,16,0.00,,,0.00,Wunderground v.1.15,2013-04-26 22:23:00,
2013-04-26 16:28:00,65.1,20.5,30.08,ESE,117,4.0,9.0,18,0.00,,,0.00,Wunderground v.1.15,2013-04-26 22:28:00,
2013-04-26 16:33:00,65.1,19.2,30.08,SE,129,4.0,8.0,17,0.00,,,0.00,Wunderground v.1.15,2013-04-26 22:33:00,
2013-04-26 16:38:00,65.1,17.7,30.07,East,85,4.0,9.0,16,0.00,,,0.00,Wunderground v.1.15,2013-04-26 22:38:00,
2013-04-26 16:43:00,65.0,20.4,30.07,SSE,151,5.0,12.0,18,0.00,,,0.00,Wunderground v.1.15,2013-04-26 22:43:00,
2013-04-26 16:48:00,64.9,17.6,30.08,ENE,69,2.0,12.0,16,0.00,,,0.00,Wunderground v.1.15,2013-04-26 22:48:00,
2013-04-26 16:53:00,65.3,17.9,30.08,SSE,149,0.0,5.0,16,0.00,,,0.00,Wunderground v.1.15,2013-04-26 22:53:00,
2013-04-26 16:58:00,65.8,18.3,30.08,SE,136,1.0,6.0,16,0.00,,,0.00,Wunderground v.1.15,2013-04-26 22:58:00,
2013-04-26 17:03:00,65.5,20.8,30.07,East,81,8.0,8.0,18,0.00,,,0.00,Wunderground v.1.15,2013-04-26 23:03:00,
2013-04-26 17:08:00,65.1,20.5,30.08,ENE,67,1.0,11.0,18,0.00,,,0.00,Wunderground v.1.15,2013-04-26 23:08:00,
2013-04-26 17:13:00,65.1,19.2,30.08,East,86,1.0,6.0,17,0.00,,,0.00,Wunderground v.1.15,2013-04-26 23:13:00,
2013-04-26 17:18:00,65.3,17.9,30.07,ESE,108,9.0,10.0,16,0.00,,,0.00,Wunderground v.1.15,2013-04-26 23:18:00,
2013-04-26 17:23:00,64.9,19.0,30.08,ESE,117,1.0,5.0,17,0.00,,,0.00,Wunderground v.1.15,2013-04-26 23:23:00,
2013-04-26 17:28:00,65.4,19.4,30.08,SE,129,2.0,6.0,17,0.00,,,0.00,Wunderground v.1.15,2013-04-26 23:28:00,
2013-04-26 17:33:00,65.6,19.6,30.07,ESE,109,3.0,6.0,17,0.00,,,0.00,Wunderground v.1.15,2013-04-26 23:33:00,
2013-04-26 17:38:00,65.4,18.0,30.08,SSE,153,2.0,6.0,16,0.00,,,0.00,Wunderground v.1.15,2013-04-26 23:38:00,
2013-04-26 17:43:00,65.3,20.7,30.08,SE,124,1.0,4.0,18,0.00,,,0.00,Wunderground v.1.15,2013-04-26 23:43:00,
2013-04-26 17:48:00,65.7,19.6,30.08,ESE,110,5.0,7.0,17,0.00,,,0.00,Wunderground v.1.15,2013-04-26 23:48:00,
2013-04-26 17:53:00,65.4,19.4,30.08,ESE,115,4.0,6.0,17,0.00,,,0.00,Wunderground v.1.15,2013-04-26 23:53:00,
2013-04-26 18:05:00,64.4,17.2,30.08,ESE,103,3.0,6.0,16,0.00,,,0.00,Wunderground v.1.15,2013-04-27 00:05:00,
2013-04-26 18:10:00,63.9,18.2,30.08,East,99,0.0,2.0,17,0.00,,,0.00,Wunderground v.1.15,2013-04-27 00:10:00,
2013-04-26 18:15:00,63.9,19.5,30.08,SE,130,1.0,3.0,18,0.00,,,0.00,Wunderground v.1.15,2013-04-27 00:15:00,
2013-04-26 18:20:00,64.2,19.8,30.08,East,85,2.0,3.0,18,0.00,,,0.00,Wunderground v.1.15,2013-04-27 00:20:00,
2013-04-26 18:25:00,64.0,19.6,30.08,ESE,108,1.0,5.0,18,0.00,,,0.00,Wunderground v.1.15,2013-04-27 00:25:00,
2013-04-26 18:30:00,63.7,19.3,30.08,East,96,2.0,3.0,18,0.00,,,0.00,Wunderground v.1.15,2013-04-27 00:30:00,
2013-04-26 18:35:00,63.2,20.2,30.08,East,89,3.0,4.0,19,0.00,,,0.00,Wunderground v.1.15,2013-04-27 00:35:00,
2013-04-26 18:40:00,62.6,20.9,30.08,ESE,105,1.0,2.0,20,0.00,,,0.00,Wunderground v.1.15,2013-04-27 00:40:00,
2013-04-26 18:45:00,62.2,19.4,30.08,ESE,112,1.0,2.0,19,0.00,,,0.00,Wunderground v.1.15,2013-04-27 00:45:00,
2013-04-26 18:50:00,61.9,17.9,30.08,SSE,166,1.0,2.0,18,0.00,,,0.00,Wunderground v.1.15,2013-04-27 00:50:00,
2013-04-26 18:55:00,61.6,20.1,30.08,SSW,194,1.0,2.0,20,0.00,,,0.00,Wunderground v.1.15,2013-04-27 00:55:00,
2013-04-26 19:00:00,61.1,19.7,30.08,SSW,207,2.0,3.0,20,0.00,,,0.00,Wunderground v.1.15,2013-04-27 01:00:00,
2013-04-26 19:05:00,60.6,23.6,30.08,WSW,258,4.0,5.0,24,0.00,,,0.00,Wunderground v.1.15,2013-04-27 01:05:00,
2013-04-26 19:10:00,59.3,26.2,30.08,WSW,250,4.0,5.0,28,0.00,,,0.00,Wunderground v.1.15,2013-04-27 01:10:00,
2013-04-26 19:15:00,58.4,26.2,30.08,West,259,4.0,5.0,29,0.00,,,0.00,Wunderground v.1.15,2013-04-27 01:15:00,
2013-04-26 19:20:00,57.8,26.5,30.08,West,259,2.0,4.0,30,0.00,,,0.00,Wunderground v.1.15,2013-04-27 01:20:00,
2013-04-26 19:25:00,57.1,25.9,30.08,WSW,249,2.0,4.0,30,0.00,,,0.00,Wunderground v.1.15,2013-04-27 01:25:00,
2013-04-26 19:30:00,56.7,24.8,30.08,SW,233,3.0,4.0,29,0.00,,,0.00,Wunderground v.1.15,2013-04-27 01:30:00,
2013-04-26 19:35:00,56.3,26.0,30.08,WSW,252,3.0,4.0,31,0.00,,,0.00,Wunderground v.1.15,2013-04-27 01:35:00,
2013-04-26 19:40:00,55.5,25.3,30.08,West,264,3.0,4.0,31,0.00,,,0.00,Wunderground v.1.15,2013-04-27 01:40:00,
2013-04-26 19:45:00,54.9,26.3,30.08,WSW,256,5.0,5.0,33,0.00,,,0.00,Wunderground v.1.15,2013-04-27 01:45:00,
2013-04-26 19:50:00,54.1,25.6,30.09,West,262,4.0,6.0,33,0.00,,,0.00,Wunderground v.1.15,2013-04-27 01:50:00,
2013-04-26 19:55:00,54.1,24.9,30.09,West,263,4.0,6.0,32,0.00,,,0.00,Wunderground v.1.15,2013-04-27 01:55:00,
2013-04-26 20:00:00,53.6,25.2,30.09,WSW,255,2.0,4.0,33,0.00,,,0.00,Wunderground v.1.15,2013-04-27 02:00:00,
2013-04-26 20:05:00,53.0,25.3,30.09,West,263,3.0,4.0,34,0.00,,,0.00,Wunderground v.1.15,2013-04-27 02:05:00,
2013-04-26 20:10:00,52.2,25.3,30.09,WSW,256,4.0,4.0,35,0.00,,,0.00,Wunderground v.1.15,2013-04-27 02:10:00,
2013-04-26 20:15:00,51.7,25.6,30.09,West,263,3.0,4.0,36,0.00,,,0.00,Wunderground v.1.15,2013-04-27 02:15:00,
2013-04-26 20:20:00,50.8,26.1,30.09,WSW,257,3.0,4.0,38,0.00,,,0.00,Wunderground v.1.15,2013-04-27 02:20:00,
2013-04-26 20:25:00,49.9,25.9,30.10,SW,224,3.0,4.0,39,0.00,,,0.00,Wunderground v.1.15,2013-04-27 02:25:00,
2013-04-26 20:30:00,49.5,26.1,30.10,WSW,257,3.0,5.0,40,0.00,,,0.00,Wunderground v.1.15,2013-04-27 02:30:00,
2013-04-26 20:35:00,49.4,26.7,30.10,WSW,246,4.0,5.0,41,0.00,,,0.00,Wunderground v.1.15,2013-04-27 02:35:00,
2013-04-26 20:40:00,49.5,26.7,30.11,West,267,2.0,3.0,41,0.00,,,0.00,Wunderground v.1.15,2013-04-27 02:40:00,
2013-04-26 20:45:00,49.5,26.7,30.11,West,271,2.0,4.0,41,0.00,,,0.00,Wunderground v.1.15,2013-04-27 02:45:00,
2013-04-26 20:50:00,49.7,27.5,30.11,SSW,195,3.0,3.0,42,0.00,,,0.00,Wunderground v.1.15,2013-04-27 02:50:00,
2013-04-26 20:55:00,49.5,28.5,30.11,SW,230,3.0,6.0,44,0.00,,,0.00,Wunderground v.1.15,2013-04-27 02:55:00,
2013-04-26 21:00:00,49.2,27.1,30.11,SW,225,2.0,3.0,42,0.00,,,0.00,Wunderground v.1.15,2013-04-27 03:00:00,
2013-04-26 21:05:00,49.5,26.1,30.12,WSW,240,2.0,5.0,40,0.00,,,0.00,Wunderground v.1.15,2013-04-27 03:05:00,
2013-04-26 21:10:00,49.5,26.1,30.12,SW,231,4.0,4.0,40,0.00,,,0.00,Wunderground v.1.15,2013-04-27 03:10:00,
2013-04-26 21:16:00,49.1,25.8,30.12,WSW,252,4.0,4.0,40,0.00,,,0.00,Wunderground v.1.15,2013-04-27 03:16:00,
2013-04-26 21:21:00,48.6,25.9,30.12,WSW,250,3.0,4.0,41,0.00,,,0.00,Wunderground v.1.15,2013-04-27 03:21:00,
2013-04-26 21:26:00,48.3,25.7,30.12,WSW,255,4.0,5.0,41,0.00,,,0.00,Wunderground v.1.15,2013-04-27 03:26:00,
2013-04-26 21:31:00,48.3,27.4,30.13,SW,223,2.0,4.0,44,0.00,,,0.00,Wunderground v.1.15,2013-04-27 03:31:00,
2013-04-26 21:36:00,47.8,25.8,30.13,West,259,4.0,5.0,42,0.00,,,0.00,Wunderground v.1.15,2013-04-27 03:36:00,
2013-04-26 21:41:00,47.6,25.6,30.13,WSW,242,3.0,4.0,42,0.00,,,0.00,Wunderground v.1.15,2013-04-27 03:41:00,
2013-04-26 21:46:00,47.5,26.1,30.13,SW,225,3.0,5.0,43,0.00,,,0.00,Wunderground v.1.15,2013-04-27 03:46:00,
2013-04-26 21:51:00,47.3,25.9,30.13,WSW,246,4.0,4.0,43,0.00,,,0.00,Wunderground v.1.15,2013-04-27 03:51:00,
2013-04-26 21:56:00,46.9,26.1,30.13,WSW,245,5.0,5.0,44,0.00,,,0.00,Wunderground v.1.15,2013-04-27 03:56:00,
2013-04-26 22:01:00,46.0,26.4,30.13,WSW,256,6.0,6.0,46,0.00,,,0.00,Wunderground v.1.15,2013-04-27 04:01:00,
2013-04-26 22:06:00,45.7,27.1,30.13,West,271,5.0,6.0,48,0.00,,,0.00,Wunderground v.1.15,2013-04-27 04:06:00,
2013-04-26 22:11:00,46.3,26.1,30.13,SW,233,2.0,5.0,45,0.00,,,0.00,Wunderground v.1.15,2013-04-27 04:11:00,
2013-04-26 22:16:00,47.5,24.9,30.13,WSW,252,5.0,10.0,41,0.00,,,0.00,Wunderground v.1.15,2013-04-27 04:16:00,
2013-04-26 22:21:00,49.1,25.2,30.13,SW,218,4.0,5.0,39,0.00,,,0.00,Wunderground v.1.15,2013-04-27 04:21:00,
2013-04-26 22:26:00,49.7,23.8,30.13,West,270,5.0,9.0,36,0.00,,,0.00,Wunderground v.1.15,2013-04-27 04:26:00,
2013-04-26 22:31:00,50.0,24.7,30.13,SSW,205,3.0,4.0,37,0.00,,,0.00,Wunderground v.1.15,2013-04-27 04:31:00,
2013-04-26 22:36:00,49.3,24.7,30.13,SW,219,3.0,5.0,38,0.00,,,0.00,Wunderground v.1.15,2013-04-27 04:36:00,
2013-04-26 22:41:00,48.6,25.3,30.13,South,190,2.0,4.0,40,0.00,,,0.00,Wunderground v.1.15,2013-04-27 04:41:00,
2013-04-26 22:46:00,48.3,25.1,30.13,WSW,250,2.0,4.0,40,0.00,,,0.00,Wunderground v.1.15,2013-04-27 04:46:00,
2013-04-26 22:51:00,48.1,25.5,30.13,SSW,211,4.0,5.0,41,0.00,,,0.00,Wunderground v.1.15,2013-04-27 04:51:00,
2013-04-26 22:56:00,47.8,25.2,30.13,SW,228,2.0,5.0,41,0.00,,,0.00,Wunderground v.1.15,2013-04-27 04:56:00,
2013-04-26 23:01:00,47.7,25.7,30.12,West,264,1.0,4.0,42,0.00,,,0.00,Wunderground v.1.15,2013-04-27 05:01:00,
2013-04-26 23:06:00,47.4,25.4,30.12,SSW,212,2.0,4.0,42,0.00,,,0.00,Wunderground v.1.15,2013-04-27 05:06:00,
2013-04-26 23:11:00,48.5,24.6,30.12,North,8,2.0,6.0,39,0.00,,,0.00,Wunderground v.1.15,2013-04-27 05:11:00,
2013-04-26 23:16:00,49.8,23.9,30.12,WNW,285,3.0,8.0,36,0.00,,,0.00,Wunderground v.1.15,2013-04-27 05:16:00,
2013-04-26 23:21:00,50.5,24.5,30.12,NW,308,3.0,5.0,36,0.00,,,0.00,Wunderground v.1.15,2013-04-27 05:21:00,
2013-04-26 23:26:00,50.7,24.7,30.12,West,274,1.0,6.0,36,0.00,,,0.00,Wunderground v.1.15,2013-04-27 05:26:00,
2013-04-26 23:31:00,50.8,24.1,30.12,SW,217,2.0,9.0,35,0.00,,,0.00,Wunderground v.1.15,2013-04-27 05:31:00,
2013-04-26 23:36:00,50.9,24.2,30.12,WNW,300,4.0,9.0,35,0.00,,,0.00,Wunderground v.1.15,2013-04-27 05:36:00,
2013-04-26 23:41:00,51.7,24.2,30.12,SSW,204,3.0,8.0,34,0.00,,,0.00,Wunderground v.1.15,2013-04-27 05:41:00,
2013-04-26 23:46:00,50.9,24.2,30.12,NE,49,3.0,8.0,35,0.00,,,0.00,Wunderground v.1.15,2013-04-27 05:46:00,
2013-04-26 23:51:00,50.5,23.8,30.12,SSW,210,5.0,8.0,35,0.00,,,0.00,Wunderground v.1.15,2013-04-27 05:51:00,
2013-04-26 23:56:00,51.0,23.6,30.12,SW,236,6.0,10.0,34,0.00,,,0.00,Wunderground v.1.15,2013-04-27 05:56:00,